sensor_id;sensor_type;location;lat;lon;timestamp;temperature;humidity
17815;DHT22;9031;50.974;11.330;2022-09-09T00:04:27;15.60;99.90
17815;DHT22;9031;50.974;11.330;2022-09-09T00:12:32;15.40;99.90
17815;DHT22;9031;50.974;11.330;2022-09-09T00:15:07;15.50;99.90
17815;DHT22;9031;50.974;11.330;2022-09-09T00:18:08;15.50;99.90
17815;DHT22;9031;50.974;11.330;2022-09-09T00:23:24;15.60;99.90
17815;DHT22;9031;50.974;11.330;2022-09-09T00:28:27;15.40;99.90
17815;DHT22;9031;50.974;11.330;2022-09-09T00:30:52;15.30;99.90
17815;DHT22;9031;50.974;11.330;2022-09-09T00:33:26;15.20;99.90
17815;DHT22;9031;50.974;11.330;2022-09-09T00:35:55;15.20;99.90
17815;DHT22;9031;50.974;11.330;2022-09-09T00:38:27;15.20;99.90
17815;DHT22;9031;50.974;11.330;2022-09-09T00:41:06;15.20;99.90
17815;DHT22;9031;50.974;11.330;2022-09-09T00:43:39;15.20;99.90
17815;DHT22;9031;50.974;11.330;2022-09-09T00:46:31;15.10;99.90
17815;DHT22;9031;50.974;11.330;2022-09-09T00:55:05;14.90;99.90
17815;DHT22;9031;50.974;11.330;2022-09-09T00:57:33;14.80;99.90
17815;DHT22;9031;50.974;11.330;2022-09-09T01:08:01;14.70;99.90
17815;DHT22;9031;50.974;11.330;2022-09-09T01:10:51;14.70;99.90
17815;DHT22;9031;50.974;11.330;2022-09-09T01:13:29;14.70;99.90
17815;DHT22;9031;50.974;11.330;2022-09-09T01:15:57;14.60;99.90
17815;DHT22;9031;50.974;11.330;2022-09-09T01:18:27;14.60;99.90
17815;DHT22;9031;50.974;11.330;2022-09-09T01:26:15;14.60;99.90
17815;DHT22;9031;50.974;11.330;2022-09-09T01:28:50;14.60;99.90
17815;DHT22;9031;50.974;11.330;2022-09-09T01:34:23;14.70;99.90
17815;DHT22;9031;50.974;11.330;2022-09-09T01:36:53;14.60;99.90
17815;DHT22;9031;50.974;11.330;2022-09-09T01:39:21;14.70;99.90
17815;DHT22;9031;50.974;11.330;2022-09-09T01:41:47;14.70;99.90
17815;DHT22;9031;50.974;11.330;2022-09-09T01:44:12;14.70;99.90
17815;DHT22;9031;50.974;11.330;2022-09-09T01:46:38;14.80;99.90
17815;DHT22;9031;50.974;11.330;2022-09-09T01:49:06;14.90;99.90
17815;DHT22;9031;50.974;11.330;2022-09-09T01:51:33;15.20;99.90
17815;DHT22;9031;50.974;11.330;2022-09-09T01:53:59;15.40;99.90
17815;DHT22;9031;50.974;11.330;2022-09-09T01:57:06;15.50;99.90
17815;DHT22;9031;50.974;11.330;2022-09-09T02:02:19;15.80;99.90
17815;DHT22;9031;50.974;11.330;2022-09-09T02:04:54;15.80;99.90
17815;DHT22;9031;50.974;11.330;2022-09-09T02:07:43;15.90;99.90
17815;DHT22;9031;50.974;11.330;2022-09-09T02:10:31;16.00;99.90
17815;DHT22;9031;50.974;11.330;2022-09-09T02:13:07;16.00;99.90
17815;DHT22;9031;50.974;11.330;2022-09-09T02:15:57;15.90;99.90
17815;DHT22;9031;50.974;11.330;2022-09-09T02:18:40;15.90;99.90
17815;DHT22;9031;50.974;11.330;2022-09-09T02:21:08;16.00;99.90
17815;DHT22;9031;50.974;11.330;2022-09-09T02:23:36;16.00;99.90
17815;DHT22;9031;50.974;11.330;2022-09-09T02:26:03;16.00;99.90
17815;DHT22;9031;50.974;11.330;2022-09-09T02:28:31;16.10;99.90
17815;DHT22;9031;50.974;11.330;2022-09-09T02:30:57;16.10;99.90
17815;DHT22;9031;50.974;11.330;2022-09-09T02:33:26;16.20;99.90
17815;DHT22;9031;50.974;11.330;2022-09-09T02:35:53;16.10;99.90
17815;DHT22;9031;50.974;11.330;2022-09-09T02:38:22;16.20;99.90
17815;DHT22;9031;50.974;11.330;2022-09-09T02:40:50;16.20;99.90
17815;DHT22;9031;50.974;11.330;2022-09-09T02:43:16;16.30;99.90
17815;DHT22;9031;50.974;11.330;2022-09-09T02:46:32;16.20;99.90
17815;DHT22;9031;50.974;11.330;2022-09-09T02:48:51;16.10;99.90
17815;DHT22;9031;50.974;11.330;2022-09-09T02:56:38;16.00;99.90
17815;DHT22;9031;50.974;11.330;2022-09-09T02:59:05;15.90;99.90
17815;DHT22;9031;50.974;11.330;2022-09-09T03:01:31;15.80;99.90
17815;DHT22;9031;50.974;11.330;2022-09-09T03:03:57;15.80;99.90
17815;DHT22;9031;50.974;11.330;2022-09-09T03:06:22;15.80;99.90
17815;DHT22;9031;50.974;11.330;2022-09-09T03:08:48;15.90;99.90
17815;DHT22;9031;50.974;11.330;2022-09-09T03:11:15;15.90;99.90
17815;DHT22;9031;50.974;11.330;2022-09-09T03:13:40;15.90;99.90
17815;DHT22;9031;50.974;11.330;2022-09-09T03:16:06;15.90;99.90
17815;DHT22;9031;50.974;11.330;2022-09-09T03:18:31;15.90;99.90
17815;DHT22;9031;50.974;11.330;2022-09-09T03:20:57;15.90;99.90
17815;DHT22;9031;50.974;11.330;2022-09-09T03:23:24;16.00;99.90
17815;DHT22;9031;50.974;11.330;2022-09-09T03:25:50;16.00;99.90
17815;DHT22;9031;50.974;11.330;2022-09-09T03:28:17;16.10;99.90
17815;DHT22;9031;50.974;11.330;2022-09-09T03:30:42;16.10;99.90
17815;DHT22;9031;50.974;11.330;2022-09-09T03:33:08;16.10;99.90
17815;DHT22;9031;50.974;11.330;2022-09-09T03:35:33;16.10;99.90
17815;DHT22;9031;50.974;11.330;2022-09-09T03:37:59;16.10;99.90
17815;DHT22;9031;50.974;11.330;2022-09-09T03:40:26;16.10;99.90
17815;DHT22;9031;50.974;11.330;2022-09-09T03:42:51;16.10;99.90
17815;DHT22;9031;50.974;11.330;2022-09-09T03:45:17;16.10;99.90
17815;DHT22;9031;50.974;11.330;2022-09-09T03:47:42;16.10;99.90
17815;DHT22;9031;50.974;11.330;2022-09-09T03:50:08;16.00;99.90
17815;DHT22;9031;50.974;11.330;2022-09-09T03:52:37;16.10;99.90
17815;DHT22;9031;50.974;11.330;2022-09-09T03:55:04;16.10;99.90
17815;DHT22;9031;50.974;11.330;2022-09-09T03:57:30;16.00;99.90
17815;DHT22;9031;50.974;11.330;2022-09-09T03:59:56;16.10;99.90
17815;DHT22;9031;50.974;11.330;2022-09-09T04:02:21;16.20;99.90
17815;DHT22;9031;50.974;11.330;2022-09-09T04:04:47;16.20;99.90
17815;DHT22;9031;50.974;11.330;2022-09-09T04:07:12;16.20;99.90
17815;DHT22;9031;50.974;11.330;2022-09-09T04:09:38;16.40;99.90
17815;DHT22;9031;50.974;11.330;2022-09-09T04:12:04;16.40;99.90
17815;DHT22;9031;50.974;11.330;2022-09-09T04:14:29;16.40;99.90
17815;DHT22;9031;50.974;11.330;2022-09-09T04:16:55;16.50;99.90
17815;DHT22;9031;50.974;11.330;2022-09-09T04:19:23;16.50;99.90
17815;DHT22;9031;50.974;11.330;2022-09-09T04:21:49;16.60;99.90
17815;DHT22;9031;50.974;11.330;2022-09-09T04:24:16;16.60;99.90
17815;DHT22;9031;50.974;11.330;2022-09-09T04:26:42;16.60;99.90
17815;DHT22;9031;50.974;11.330;2022-09-09T04:29:08;16.60;99.90
17815;DHT22;9031;50.974;11.330;2022-09-09T04:31:33;16.60;99.90
17815;DHT22;9031;50.974;11.330;2022-09-09T04:33:59;16.60;99.90
17815;DHT22;9031;50.974;11.330;2022-09-09T04:36:30;16.60;99.90
17815;DHT22;9031;50.974;11.330;2022-09-09T04:38:57;16.50;99.90
17815;DHT22;9031;50.974;11.330;2022-09-09T04:41:22;16.50;99.90
17815;DHT22;9031;50.974;11.330;2022-09-09T04:43:49;16.60;99.90
17815;DHT22;9031;50.974;11.330;2022-09-09T04:46:14;16.60;99.90
17815;DHT22;9031;50.974;11.330;2022-09-09T04:48:42;16.40;99.90
17815;DHT22;9031;50.974;11.330;2022-09-09T04:51:11;16.30;99.90
17815;DHT22;9031;50.974;11.330;2022-09-09T04:53:36;16.20;99.90
17815;DHT22;9031;50.974;11.330;2022-09-09T04:56:13;16.10;99.90
17815;DHT22;9031;50.974;11.330;2022-09-09T04:58:39;16.10;99.90
17815;DHT22;9031;50.974;11.330;2022-09-09T05:01:13;16.10;99.90
17815;DHT22;9031;50.974;11.330;2022-09-09T05:03:39;16.10;99.90
17815;DHT22;9031;50.974;11.330;2022-09-09T05:06:11;16.00;99.90
17815;DHT22;9031;50.974;11.330;2022-09-09T05:08:37;16.00;99.90
17815;DHT22;9031;50.974;11.330;2022-09-09T05:11:16;16.00;99.90
17815;DHT22;9031;50.974;11.330;2022-09-09T05:13:42;16.10;99.90
17815;DHT22;9031;50.974;11.330;2022-09-09T05:16:08;16.10;99.90
17815;DHT22;9031;50.974;11.330;2022-09-09T05:18:37;16.10;99.90
17815;DHT22;9031;50.974;11.330;2022-09-09T05:21:02;16.20;99.90
17815;DHT22;9031;50.974;11.330;2022-09-09T05:23:28;16.20;99.90
17815;DHT22;9031;50.974;11.330;2022-09-09T05:25:55;16.20;99.90
17815;DHT22;9031;50.974;11.330;2022-09-09T05:28:22;16.30;99.90
17815;DHT22;9031;50.974;11.330;2022-09-09T05:30:55;16.40;99.90
17815;DHT22;9031;50.974;11.330;2022-09-09T05:33:21;16.50;99.90
17815;DHT22;9031;50.974;11.330;2022-09-09T05:35:46;16.50;99.90
17815;DHT22;9031;50.974;11.330;2022-09-09T05:38:12;16.50;99.90
17815;DHT22;9031;50.974;11.330;2022-09-09T05:40:39;16.60;99.90
17815;DHT22;9031;50.974;11.330;2022-09-09T05:43:12;16.60;99.90
17815;DHT22;9031;50.974;11.330;2022-09-09T05:45:38;16.70;99.90
17815;DHT22;9031;50.974;11.330;2022-09-09T05:48:03;16.70;99.90
17815;DHT22;9031;50.974;11.330;2022-09-09T05:50:28;16.70;99.90
17815;DHT22;9031;50.974;11.330;2022-09-09T05:52:54;16.60;99.90
17815;DHT22;9031;50.974;11.330;2022-09-09T05:55:20;16.60;99.90
17815;DHT22;9031;50.974;11.330;2022-09-09T05:57:48;16.80;99.90
17815;DHT22;9031;50.974;11.330;2022-09-09T06:00:14;16.70;99.90
17815;DHT22;9031;50.974;11.330;2022-09-09T06:02:41;16.70;99.90
17815;DHT22;9031;50.974;11.330;2022-09-09T06:05:07;16.80;99.90
17815;DHT22;9031;50.974;11.330;2022-09-09T06:07:33;16.90;99.90
17815;DHT22;9031;50.974;11.330;2022-09-09T06:09:59;16.90;99.90
17815;DHT22;9031;50.974;11.330;2022-09-09T06:12:25;17.00;99.90
17815;DHT22;9031;50.974;11.330;2022-09-09T06:14:51;17.10;99.90
17815;DHT22;9031;50.974;11.330;2022-09-09T06:17:17;17.10;99.90
17815;DHT22;9031;50.974;11.330;2022-09-09T06:19:42;17.00;99.90
17815;DHT22;9031;50.974;11.330;2022-09-09T06:22:08;17.00;99.90
17815;DHT22;9031;50.974;11.330;2022-09-09T06:24:37;17.10;99.90
17815;DHT22;9031;50.974;11.330;2022-09-09T06:27:03;17.00;99.90
17815;DHT22;9031;50.974;11.330;2022-09-09T06:29:29;17.30;99.90
17815;DHT22;9031;50.974;11.330;2022-09-09T06:31:54;17.40;99.90
17815;DHT22;9031;50.974;11.330;2022-09-09T06:34:20;17.80;99.90
17815;DHT22;9031;50.974;11.330;2022-09-09T06:36:46;18.00;99.90
17815;DHT22;9031;50.974;11.330;2022-09-09T06:39:11;18.10;99.90
17815;DHT22;9031;50.974;11.330;2022-09-09T06:41:37;18.30;99.90
17815;DHT22;9031;50.974;11.330;2022-09-09T06:44:03;18.20;99.90
17815;DHT22;9031;50.974;11.330;2022-09-09T06:46:30;18.40;99.90
17815;DHT22;9031;50.974;11.330;2022-09-09T06:48:58;18.30;99.90
17815;DHT22;9031;50.974;11.330;2022-09-09T06:51:35;18.40;99.90
17815;DHT22;9031;50.974;11.330;2022-09-09T06:54:03;18.40;99.90
17815;DHT22;9031;50.974;11.330;2022-09-09T06:56:40;18.40;99.90
17815;DHT22;9031;50.974;11.330;2022-09-09T06:59:07;18.40;99.90
17815;DHT22;9031;50.974;11.330;2022-09-09T07:01:43;18.40;99.90
17815;DHT22;9031;50.974;11.330;2022-09-09T07:04:09;18.50;99.90
17815;DHT22;9031;50.974;11.330;2022-09-09T07:06:41;18.60;99.90
17815;DHT22;9031;50.974;11.330;2022-09-09T07:09:09;18.50;99.90
17815;DHT22;9031;50.974;11.330;2022-09-09T07:11:41;18.50;99.90
17815;DHT22;9031;50.974;11.330;2022-09-09T07:14:07;18.50;99.90
17815;DHT22;9031;50.974;11.330;2022-09-09T07:16:33;18.70;99.90
17815;DHT22;9031;50.974;11.330;2022-09-09T07:19:00;18.80;99.90
17815;DHT22;9031;50.974;11.330;2022-09-09T07:21:29;19.00;99.90
17815;DHT22;9031;50.974;11.330;2022-09-09T07:23:55;19.20;99.90
17815;DHT22;9031;50.974;11.330;2022-09-09T07:26:26;19.20;99.90
17815;DHT22;9031;50.974;11.330;2022-09-09T07:28:52;19.10;99.90
17815;DHT22;9031;50.974;11.330;2022-09-09T07:31:21;19.00;99.90
17815;DHT22;9031;50.974;11.330;2022-09-09T07:33:47;19.00;99.90
17815;DHT22;9031;50.974;11.330;2022-09-09T07:36:19;18.90;99.90
17815;DHT22;9031;50.974;11.330;2022-09-09T07:38:53;18.90;99.90
17815;DHT22;9031;50.974;11.330;2022-09-09T07:41:33;19.00;99.90
17815;DHT22;9031;50.974;11.330;2022-09-09T07:44:03;19.20;99.90
17815;DHT22;9031;50.974;11.330;2022-09-09T07:46:29;19.10;99.90
17815;DHT22;9031;50.974;11.330;2022-09-09T07:48:56;19.00;99.90
17815;DHT22;9031;50.974;11.330;2022-09-09T07:51:27;19.20;99.90
17815;DHT22;9031;50.974;11.330;2022-09-09T07:53:58;19.40;99.90
17815;DHT22;9031;50.974;11.330;2022-09-09T07:56:25;19.70;99.90
17815;DHT22;9031;50.974;11.330;2022-09-09T07:58:53;19.90;99.90
17815;DHT22;9031;50.974;11.330;2022-09-09T08:01:26;19.90;99.90
17815;DHT22;9031;50.974;11.330;2022-09-09T08:03:59;19.90;99.90
17815;DHT22;9031;50.974;11.330;2022-09-09T08:06:27;20.10;99.90
17815;DHT22;9031;50.974;11.330;2022-09-09T08:08:53;20.10;99.90
17815;DHT22;9031;50.974;11.330;2022-09-09T08:11:21;20.40;99.90
17815;DHT22;9031;50.974;11.330;2022-09-09T08:13:49;20.70;99.90
17815;DHT22;9031;50.974;11.330;2022-09-09T08:16:18;20.90;99.90
17815;DHT22;9031;50.974;11.330;2022-09-09T08:18:43;21.00;99.90
17815;DHT22;9031;50.974;11.330;2022-09-09T08:21:14;21.30;99.90
17815;DHT22;9031;50.974;11.330;2022-09-09T08:23:41;21.30;99.90
17815;DHT22;9031;50.974;11.330;2022-09-09T08:26:16;21.30;99.90
17815;DHT22;9031;50.974;11.330;2022-09-09T08:28:42;21.30;99.90
17815;DHT22;9031;50.974;11.330;2022-09-09T08:31:14;21.40;99.90
17815;DHT22;9031;50.974;11.330;2022-09-09T08:33:41;21.60;99.90
17815;DHT22;9031;50.974;11.330;2022-09-09T08:36:09;21.90;99.90
17815;DHT22;9031;50.974;11.330;2022-09-09T08:38:35;21.50;99.90
17815;DHT22;9031;50.974;11.330;2022-09-09T08:41:12;21.30;99.90
17815;DHT22;9031;50.974;11.330;2022-09-09T08:43:42;21.50;99.90
17815;DHT22;9031;50.974;11.330;2022-09-09T08:46:24;21.90;99.90
17815;DHT22;9031;50.974;11.330;2022-09-09T08:49:01;22.10;99.90
17815;DHT22;9031;50.974;11.330;2022-09-09T08:51:32;22.20;99.90
17815;DHT22;9031;50.974;11.330;2022-09-09T08:54:02;21.90;99.90
17815;DHT22;9031;50.974;11.330;2022-09-09T08:56:30;21.50;99.90
17815;DHT22;9031;50.974;11.330;2022-09-09T08:58:56;21.10;99.90
17815;DHT22;9031;50.974;11.330;2022-09-09T09:04:32;20.50;99.90
17815;DHT22;9031;50.974;11.330;2022-09-09T09:12:23;20.30;99.90
17815;DHT22;9031;50.974;11.330;2022-09-09T09:14:50;20.40;99.90
17815;DHT22;9031;50.974;11.330;2022-09-09T09:17:20;20.50;99.90
17815;DHT22;9031;50.974;11.330;2022-09-09T09:19:47;20.50;99.90
17815;DHT22;9031;50.974;11.330;2022-09-09T09:25:08;20.70;99.90
17815;DHT22;9031;50.974;11.330;2022-09-09T09:27:44;20.70;99.90
17815;DHT22;9031;50.974;11.330;2022-09-09T09:30:18;21.10;99.90
17815;DHT22;9031;50.974;11.330;2022-09-09T09:33:04;21.90;99.90
17815;DHT22;9031;50.974;11.330;2022-09-09T09:35:31;22.50;99.90
17815;DHT22;9031;50.974;11.330;2022-09-09T09:37:56;22.40;99.90
17815;DHT22;9031;50.974;11.330;2022-09-09T09:40:23;22.20;99.90
17815;DHT22;9031;50.974;11.330;2022-09-09T09:42:57;21.80;99.90
17815;DHT22;9031;50.974;11.330;2022-09-09T09:45:43;21.90;99.90
17815;DHT22;9031;50.974;11.330;2022-09-09T09:48:13;21.70;99.90
17815;DHT22;9031;50.974;11.330;2022-09-09T09:50:58;21.60;99.90
17815;DHT22;9031;50.974;11.330;2022-09-09T09:53:27;21.80;99.90
17815;DHT22;9031;50.974;11.330;2022-09-09T09:55:59;22.60;99.90
17815;DHT22;9031;50.974;11.330;2022-09-09T10:01:24;23.80;99.90
17815;DHT22;9031;50.974;11.330;2022-09-09T10:03:51;24.10;99.90
17815;DHT22;9031;50.974;11.330;2022-09-09T10:06:28;24.40;99.90
17815;DHT22;9031;50.974;11.330;2022-09-09T10:08:54;24.30;99.90
17815;DHT22;9031;50.974;11.330;2022-09-09T10:14:13;24.90;99.90
17815;DHT22;9031;50.974;11.330;2022-09-09T10:19:34;23.80;99.90
17815;DHT22;9031;50.974;11.330;2022-09-09T10:22:28;23.10;99.90
17815;DHT22;9031;50.974;11.330;2022-09-09T10:28:36;23.50;99.90
17815;DHT22;9031;50.974;11.330;2022-09-09T10:31:42;23.30;99.90
17815;DHT22;9031;50.974;11.330;2022-09-09T10:40:33;23.40;99.90
17815;DHT22;9031;50.974;11.330;2022-09-09T10:43:20;25.00;99.90
17815;DHT22;9031;50.974;11.330;2022-09-09T10:46:11;26.10;99.90
17815;DHT22;9031;50.974;11.330;2022-09-09T10:54:13;27.10;99.90
17815;DHT22;9031;50.974;11.330;2022-09-09T10:56:44;27.40;99.90
17815;DHT22;9031;50.974;11.330;2022-09-09T10:59:19;27.90;99.90
17815;DHT22;9031;50.974;11.330;2022-09-09T11:01:53;27.80;99.90
17815;DHT22;9031;50.974;11.330;2022-09-09T11:04:28;26.80;99.90
17815;DHT22;9031;50.974;11.330;2022-09-09T11:06:58;26.60;99.90
17815;DHT22;9031;50.974;11.330;2022-09-09T11:09:32;26.40;99.90
17815;DHT22;9031;50.974;11.330;2022-09-09T11:12:00;25.90;99.90
17815;DHT22;9031;50.974;11.330;2022-09-09T11:14:36;26.50;99.90
17815;DHT22;9031;50.974;11.330;2022-09-09T11:17:06;27.70;99.90
17815;DHT22;9031;50.974;11.330;2022-09-09T11:19:40;28.80;99.90
17815;DHT22;9031;50.974;11.330;2022-09-09T11:24:53;26.70;99.90
17815;DHT22;9031;50.974;11.330;2022-09-09T11:27:49;26.10;99.90
17815;DHT22;9031;50.974;11.330;2022-09-09T11:30:43;25.30;99.90
17815;DHT22;9031;50.974;11.330;2022-09-09T11:33:34;24.10;99.90
17815;DHT22;9031;50.974;11.330;2022-09-09T11:39:44;23.60;99.90
17815;DHT22;9031;50.974;11.330;2022-09-09T11:42:23;24.70;99.90
17815;DHT22;9031;50.974;11.330;2022-09-09T11:44:49;28.10;99.90
17815;DHT22;9031;50.974;11.330;2022-09-09T11:47:22;29.80;99.90
17815;DHT22;9031;50.974;11.330;2022-09-09T11:49:51;29.80;99.90
17815;DHT22;9031;50.974;11.330;2022-09-09T11:52:36;29.90;99.90
17815;DHT22;9031;50.974;11.330;2022-09-09T11:55:32;28.70;99.90
17815;DHT22;9031;50.974;11.330;2022-09-09T11:58:15;27.70;99.90
17815;DHT22;9031;50.974;11.330;2022-09-09T12:00:43;26.00;99.90
17815;DHT22;9031;50.974;11.330;2022-09-09T12:03:47;24.70;99.90
17815;DHT22;9031;50.974;11.330;2022-09-09T12:07:05;24.10;99.90
17815;DHT22;9031;50.974;11.330;2022-09-09T12:09:22;25.20;99.90
17815;DHT22;9031;50.974;11.330;2022-09-09T12:11:49;27.30;99.90
17815;DHT22;9031;50.974;11.330;2022-09-09T12:14:38;28.10;99.90
17815;DHT22;9031;50.974;11.330;2022-09-09T12:17:30;28.50;99.90
17815;DHT22;9031;50.974;11.330;2022-09-09T12:20:11;27.10;99.90
17815;DHT22;9031;50.974;11.330;2022-09-09T12:28:14;23.60;99.90
17815;DHT22;9031;50.974;11.330;2022-09-09T12:33:23;23.60;99.90
17815;DHT22;9031;50.974;11.330;2022-09-09T12:35:55;23.30;99.90
17815;DHT22;9031;50.974;11.330;2022-09-09T12:38:43;23.90;99.90
17815;DHT22;9031;50.974;11.330;2022-09-09T12:41:20;24.00;99.90
17815;DHT22;9031;50.974;11.330;2022-09-09T12:43:45;24.20;99.90
17815;DHT22;9031;50.974;11.330;2022-09-09T12:46:23;24.90;99.90
17815;DHT22;9031;50.974;11.330;2022-09-09T12:48:53;25.90;99.90
17815;DHT22;9031;50.974;11.330;2022-09-09T12:51:31;26.10;99.90
17815;DHT22;9031;50.974;11.330;2022-09-09T12:53:58;27.00;99.90
17815;DHT22;9031;50.974;11.330;2022-09-09T12:56:26;27.00;99.90
17815;DHT22;9031;50.974;11.330;2022-09-09T12:58:53;28.30;99.90
17815;DHT22;9031;50.974;11.330;2022-09-09T13:03:48;31.90;99.90
17815;DHT22;9031;50.974;11.330;2022-09-09T13:06:23;31.10;99.90
17815;DHT22;9031;50.974;11.330;2022-09-09T13:08:51;30.90;99.90
17815;DHT22;9031;50.974;11.330;2022-09-09T13:11:40;30.00;99.90
17815;DHT22;9031;50.974;11.330;2022-09-09T13:14:05;28.30;99.90
17815;DHT22;9031;50.974;11.330;2022-09-09T13:16:33;26.70;99.90
17815;DHT22;9031;50.974;11.330;2022-09-09T13:19:21;25.30;99.90
17815;DHT22;9031;50.974;11.330;2022-09-09T13:21:46;24.70;99.90
17815;DHT22;9031;50.974;11.330;2022-09-09T13:26:58;23.40;99.90
17815;DHT22;9031;50.974;11.330;2022-09-09T13:29:25;23.40;99.90
17815;DHT22;9031;50.974;11.330;2022-09-09T13:31:53;23.00;99.90
17815;DHT22;9031;50.974;11.330;2022-09-09T13:34:32;24.00;99.90
17815;DHT22;9031;50.974;11.330;2022-09-09T13:37:03;25.30;99.90
17815;DHT22;9031;50.974;11.330;2022-09-09T13:39:33;24.80;99.90
17815;DHT22;9031;50.974;11.330;2022-09-09T13:41:59;24.20;99.90
17815;DHT22;9031;50.974;11.330;2022-09-09T13:44:29;23.40;99.90
17815;DHT22;9031;50.974;11.330;2022-09-09T13:49:39;22.30;99.90
17815;DHT22;9031;50.974;11.330;2022-09-09T13:52:15;22.20;99.90
17815;DHT22;9031;50.974;11.330;2022-09-09T13:54:42;22.20;99.90
17815;DHT22;9031;50.974;11.330;2022-09-09T13:57:23;23.00;99.90
17815;DHT22;9031;50.974;11.330;2022-09-09T13:59:49;24.90;99.90
17815;DHT22;9031;50.974;11.330;2022-09-09T14:02:16;26.50;99.90
17815;DHT22;9031;50.974;11.330;2022-09-09T14:04:42;27.40;99.90
17815;DHT22;9031;50.974;11.330;2022-09-09T14:07:12;27.40;99.90
17815;DHT22;9031;50.974;11.330;2022-09-09T14:09:39;27.30;99.90
17815;DHT22;9031;50.974;11.330;2022-09-09T14:12:06;27.20;99.90
17815;DHT22;9031;50.974;11.330;2022-09-09T14:14:33;26.60;99.90
17815;DHT22;9031;50.974;11.330;2022-09-09T14:16:59;26.00;99.90
17815;DHT22;9031;50.974;11.330;2022-09-09T14:19:24;25.70;99.90
17815;DHT22;9031;50.974;11.330;2022-09-09T14:21:50;25.20;99.90
17815;DHT22;9031;50.974;11.330;2022-09-09T14:24:15;25.10;99.90
17815;DHT22;9031;50.974;11.330;2022-09-09T14:26:41;24.70;99.90
17815;DHT22;9031;50.974;11.330;2022-09-09T14:29:07;24.40;99.90
17815;DHT22;9031;50.974;11.330;2022-09-09T14:31:32;23.60;99.90
17815;DHT22;9031;50.974;11.330;2022-09-09T14:33:58;23.20;99.90
17815;DHT22;9031;50.974;11.330;2022-09-09T14:36:24;23.20;99.90
17815;DHT22;9031;50.974;11.330;2022-09-09T14:38:50;23.00;99.90
17815;DHT22;9031;50.974;11.330;2022-09-09T14:41:17;22.90;99.90
17815;DHT22;9031;50.974;11.330;2022-09-09T14:43:43;23.20;99.90
17815;DHT22;9031;50.974;11.330;2022-09-09T14:46:11;23.40;99.90
17815;DHT22;9031;50.974;11.330;2022-09-09T14:48:37;23.50;99.90
17815;DHT22;9031;50.974;11.330;2022-09-09T14:51:10;23.80;99.90
17815;DHT22;9031;50.974;11.330;2022-09-09T14:53:36;23.70;99.90
17815;DHT22;9031;50.974;11.330;2022-09-09T14:56:10;23.90;99.90
17815;DHT22;9031;50.974;11.330;2022-09-09T14:58:36;24.30;99.90
17815;DHT22;9031;50.974;11.330;2022-09-09T15:01:08;24.20;99.90
17815;DHT22;9031;50.974;11.330;2022-09-09T15:03:36;23.60;99.90
17815;DHT22;9031;50.974;11.330;2022-09-09T15:06:11;23.60;99.90
17815;DHT22;9031;50.974;11.330;2022-09-09T15:08:37;23.90;99.90
17815;DHT22;9031;50.974;11.330;2022-09-09T15:11:05;24.30;99.90
17815;DHT22;9031;50.974;11.330;2022-09-09T15:13:31;24.60;99.90
17815;DHT22;9031;50.974;11.330;2022-09-09T15:16:06;24.80;99.90
17815;DHT22;9031;50.974;11.330;2022-09-09T15:18:33;24.50;99.90
17815;DHT22;9031;50.974;11.330;2022-09-09T15:21:02;23.90;99.90
17815;DHT22;9031;50.974;11.330;2022-09-09T15:23:32;23.70;99.90
17815;DHT22;9031;50.974;11.330;2022-09-09T15:25:57;23.60;99.90
17815;DHT22;9031;50.974;11.330;2022-09-09T15:28:23;23.50;99.90
17815;DHT22;9031;50.974;11.330;2022-09-09T15:30:50;23.30;99.90
17815;DHT22;9031;50.974;11.330;2022-09-09T15:33:17;23.40;99.90
17815;DHT22;9031;50.974;11.330;2022-09-09T15:35:42;24.20;99.90
17815;DHT22;9031;50.974;11.330;2022-09-09T15:38:08;24.80;99.90
17815;DHT22;9031;50.974;11.330;2022-09-09T15:40:33;24.90;99.90
17815;DHT22;9031;50.974;11.330;2022-09-09T15:42:59;25.00;99.90
17815;DHT22;9031;50.974;11.330;2022-09-09T15:45:25;25.30;99.90
17815;DHT22;9031;50.974;11.330;2022-09-09T15:47:52;26.40;99.90
17815;DHT22;9031;50.974;11.330;2022-09-09T15:50:17;26.90;99.90
17815;DHT22;9031;50.974;11.330;2022-09-09T15:52:43;26.60;99.90
17815;DHT22;9031;50.974;11.330;2022-09-09T15:55:09;25.70;99.90
17815;DHT22;9031;50.974;11.330;2022-09-09T15:57:35;24.70;99.90
17815;DHT22;9031;50.974;11.330;2022-09-09T16:00:03;24.50;99.90
17815;DHT22;9031;50.974;11.330;2022-09-09T16:02:29;24.60;99.90
17815;DHT22;9031;50.974;11.330;2022-09-09T16:04:55;24.90;99.90
17815;DHT22;9031;50.974;11.330;2022-09-09T16:07:20;24.80;99.90
17815;DHT22;9031;50.974;11.330;2022-09-09T16:09:46;24.30;99.90
17815;DHT22;9031;50.974;11.330;2022-09-09T16:12:11;24.00;99.90
17815;DHT22;9031;50.974;11.330;2022-09-09T16:14:38;23.70;99.90
17815;DHT22;9031;50.974;11.330;2022-09-09T16:17:05;23.70;99.90
17815;DHT22;9031;50.974;11.330;2022-09-09T16:19:32;23.70;99.90
17815;DHT22;9031;50.974;11.330;2022-09-09T16:21:57;23.90;99.90
17815;DHT22;9031;50.974;11.330;2022-09-09T16:24:23;23.90;99.90
17815;DHT22;9031;50.974;11.330;2022-09-09T16:26:51;24.00;99.90
17815;DHT22;9031;50.974;11.330;2022-09-09T16:29:18;24.40;99.90
17815;DHT22;9031;50.974;11.330;2022-09-09T16:31:46;24.00;99.90
17815;DHT22;9031;50.974;11.330;2022-09-09T16:34:13;23.30;99.90
17815;DHT22;9031;50.974;11.330;2022-09-09T16:36:40;22.90;99.90
17815;DHT22;9031;50.974;11.330;2022-09-09T16:39:09;22.30;99.90
17815;DHT22;9031;50.974;11.330;2022-09-09T16:41:36;22.10;99.90
17815;DHT22;9031;50.974;11.330;2022-09-09T16:44:04;21.80;99.90
17815;DHT22;9031;50.974;11.330;2022-09-09T16:46:32;21.60;99.90
17815;DHT22;9031;50.974;11.330;2022-09-09T16:49:00;21.30;99.90
17815;DHT22;9031;50.974;11.330;2022-09-09T16:51:28;21.10;99.90
17815;DHT22;9031;50.974;11.330;2022-09-09T16:53:54;20.90;99.90
17815;DHT22;9031;50.974;11.330;2022-09-09T16:56:24;20.90;99.90
17815;DHT22;9031;50.974;11.330;2022-09-09T16:58:58;20.90;99.90
17815;DHT22;9031;50.974;11.330;2022-09-09T17:01:26;20.80;99.90
17815;DHT22;9031;50.974;11.330;2022-09-09T17:03:53;20.80;99.90
17815;DHT22;9031;50.974;11.330;2022-09-09T17:06:19;20.70;99.90
17815;DHT22;9031;50.974;11.330;2022-09-09T17:08:44;20.60;99.90
17815;DHT22;9031;50.974;11.330;2022-09-09T17:11:14;20.70;99.90
17815;DHT22;9031;50.974;11.330;2022-09-09T17:13:42;20.60;99.90
17815;DHT22;9031;50.974;11.330;2022-09-09T17:16:08;20.50;99.90
17815;DHT22;9031;50.974;11.330;2022-09-09T17:18:34;20.40;99.90
17815;DHT22;9031;50.974;11.330;2022-09-09T17:21:05;20.30;99.90
17815;DHT22;9031;50.974;11.330;2022-09-09T17:23:32;20.20;99.90
17815;DHT22;9031;50.974;11.330;2022-09-09T17:25:59;20.10;99.90
17815;DHT22;9031;50.974;11.330;2022-09-09T17:28:26;20.10;99.90
17815;DHT22;9031;50.974;11.330;2022-09-09T17:31:00;20.00;99.90